Subpeak Weather - Last 24 Hours


View Last Hour    View Last 24 Hours

Time
Avg. Air Temp
Dew Point
Avg. Rel Humidity
Avg. 2 Min Wind Speed
Max Gust Velocity
MGV Time
MGV Direction
Avg. Spot Wind Velocity
2014-07-29 11:00:0018° C3° C36%11 km/h19 km/h2014-07-29 10:38:10S10 km/h
2014-07-29 10:00:0017° C2° C36%11 km/h19 km/h2014-07-29 09:10:10S12 km/h
2014-07-29 09:00:0016° C0° C35%15 km/h25 km/h2014-07-29 08:54:10S15 km/h
2014-07-29 08:00:0016° C-0° C34%16 km/h20 km/h2014-07-29 07:59:10SE15 km/h
2014-07-29 07:00:0016° C-0° C34%16 km/h21 km/h2014-07-29 06:32:10S17 km/h
2014-07-29 06:00:0016° C0° C34%18 km/h22 km/h2014-07-29 06:00:10S16 km/h
2014-07-29 05:00:0016° C-0° C34%13 km/h18 km/h2014-07-29 04:53:10S12 km/h
2014-07-29 04:00:0016° C0° C34%9 km/h14 km/h2014-07-29 03:36:10S11 km/h
2014-07-29 03:00:0016° C0° C35%12 km/h17 km/h2014-07-29 02:05:10S14 km/h
2014-07-29 02:00:0016° C1° C35%16 km/h17 km/h2014-07-29 01:02:10S16 km/h
2014-07-29 01:00:0016° C1° C34%17 km/h19 km/h2014-07-29 00:34:10SW15 km/h
2014-07-29 00:00:0016° C0° C32%15 km/h19 km/h2014-07-28 23:30:10S16 km/h
2014-07-28 23:00:0017° C-1° C31%14 km/h15 km/h2014-07-28 23:00:10S12 km/h
2014-07-28 22:00:0017° C-0° C32%8 km/h14 km/h2014-07-28 21:29:10S9 km/h
2014-07-28 21:00:0017° C-0° C31%5 km/h6 km/h2014-07-28 20:55:10SE3 km/h
2014-07-28 20:00:0018° C0° C32%2 km/h6 km/h2014-07-28 19:39:10SW2 km/h
2014-07-28 19:00:0019° C2° C31%1 km/h12 km/h2014-07-28 18:25:10SW4 km/h
2014-07-28 18:00:0019° C3° C29%5 km/h15 km/h2014-07-28 17:24:10S6 km/h
2014-07-28 17:00:0019° C-1° C30%6 km/h17 km/h2014-07-28 16:27:10W7 km/h
2014-07-28 16:00:0018° C1° C31%11 km/h23 km/h2014-07-28 15:06:10SW9 km/h
2014-07-28 15:00:0018° C1° C31%11 km/h21 km/h2014-07-28 14:16:10S8 km/h
2014-07-28 14:00:0018° C1° C31%6 km/h27 km/h2014-07-28 13:08:10S11 km/h
2014-07-28 13:00:0017° C-2° C32%17 km/h23 km/h2014-07-28 12:41:10S13 km/h
2014-07-28 12:00:0017° C-1° C35%13 km/h21 km/h2014-07-28 11:39:10S12 km/h